Time;durP1;ratioP1;P1;durP2;ratioP2;P2;SDS_P1;SDS_P2;PMS_P1;PMS_P2;Temp;Humidity;BMP_temperature;BMP_pressure;BME280_temperature;BME280_humidity;BME280_pressure;Samples;Min_cycle;Max_cycle;Signal;HPM_P1;HPM_P2
2023/07/11 00:01:25;;;;;;;9.95;8.98;;;;;;;21.67;100.00;99476.72;5115141;28;20197;-76
2023/07/11 00:03:51;;;;;;;9.93;8.93;;;;;;;21.66;100.00;99480.56;5108345;28;20600;-76
2023/07/11 00:06:19;;;;;;;10.18;9.18;;;;;;;21.63;100.00;99493.97;5111077;28;20204;-75
2023/07/11 00:08:46;;;;;;;9.93;8.88;;;;;;;21.63;100.00;99489.34;5114252;28;20191;-76
2023/07/11 00:11:16;;;;;;;10.18;9.18;;;;;;;21.62;100.00;99493.16;5114349;28;20255;-76
2023/07/11 00:13:42;;;;;;;9.80;8.75;;;;;;;21.59;100.00;99501.94;5113720;28;20185;-76
2023/07/11 00:16:11;;;;;;;9.80;8.90;;;;;;;21.54;100.00;99496.56;5114556;28;20279;-76
2023/07/11 00:18:38;;;;;;;9.43;8.48;;;;;;;21.50;100.00;99506.44;5099640;28;20194;-76
2023/07/11 00:21:05;;;;;;;9.48;8.60;;;;;;;21.44;100.00;99499.44;5114273;28;20664;-75
2023/07/11 00:23:32;;;;;;;9.63;8.73;;;;;;;21.41;100.00;99503.56;5113472;28;20191;-75
2023/07/11 00:25:59;;;;;;;10.00;9.00;;;;;;;21.42;100.00;99498.91;5114608;28;20220;-75
2023/07/11 00:28:26;;;;;;;9.65;8.80;;;;;;;21.38;100.00;99493.22;5110172;28;20191;-76
2023/07/11 00:30:54;;;;;;;12.63;9.35;;;;;;;21.39;100.00;99496.78;5108897;28;20190;-76
2023/07/11 00:33:20;;;;;;;10.00;9.00;;;;;;;21.43;100.00;99495.06;5105792;28;20199;-75
2023/07/11 00:35:53;;;;;;;9.57;8.77;;;;;;;21.42;100.00;99496.97;5085106;28;20204;-76
2023/07/11 00:38:20;;;;;;;9.98;8.98;;;;;;;21.39;100.00;99494.84;5108192;28;20195;-75
2023/07/11 00:40:49;;;;;;;10.82;9.73;;;;;;;21.36;100.00;99502.81;5099950;28;20245;-75
2023/07/11 00:43:19;;;;;;;9.68;8.77;;;;;;;21.34;100.00;99499.56;5107814;28;20218;-76
2023/07/11 00:45:49;;;;;;;9.05;8.25;;;;;;;21.36;100.00;99511.00;5104008;28;20215;-75
2023/07/11 00:48:19;;;;;;;9.90;8.43;;;;;;;21.38;100.00;99508.75;5100555;28;20185;-75
2023/07/11 00:50:46;;;;;;;9.02;8.23;;;;;;;21.33;100.00;99497.94;5078198;28;20209;-76
2023/07/11 00:53:13;;;;;;;12.05;8.65;;;;;;;21.30;100.00;99499.34;5094204;28;20270;-75
2023/07/11 00:55:41;;;;;;;8.90;8.10;;;;;;;21.25;100.00;99502.13;5095469;28;20565;-76
2023/07/11 00:58:07;;;;;;;9.65;8.77;;;;;;;21.25;100.00;99496.69;5070732;28;20219;-75
2023/07/11 01:00:34;;;;;;;9.68;8.80;;;;;;;21.28;100.00;99500.72;5080013;28;20224;-76
2023/07/11 01:03:02;;;;;;;9.23;8.40;;;;;;;21.31;100.00;99506.41;5101902;28;20236;-76
2023/07/11 01:05:29;;;;;;;9.05;8.20;;;;;;;21.33;100.00;99501.47;5105204;28;20233;-76
2023/07/11 01:07:56;;;;;;;9.45;8.35;;;;;;;21.33;100.00;99509.66;5105795;28;20234;-75
2023/07/11 01:10:22;;;;;;;9.02;8.18;;;;;;;21.32;100.00;99507.22;5113661;28;20221;-77
2023/07/11 01:12:49;;;;;;;10.60;8.25;;;;;;;21.30;100.00;99501.25;5113854;28;20197;-76
2023/07/11 01:15:18;;;;;;;9.68;8.68;;;;;;;21.28;100.00;99503.44;5112501;28;20283;-75
2023/07/11 01:17:45;;;;;;;9.05;8.25;;;;;;;21.25;100.00;99513.03;5108611;28;20221;-75
2023/07/11 01:20:14;;;;;;;10.00;9.10;;;;;;;21.21;100.00;99506.53;5087044;28;20569;-75
2023/07/11 01:22:41;;;;;;;9.77;8.88;;;;;;;21.20;100.00;99515.00;5095103;28;20230;-76
2023/07/11 01:25:10;;;;;;;8.73;7.93;;;;;;;21.12;100.00;99521.88;5107162;28;20215;-75
2023/07/11 01:27:39;;;;;;;9.80;8.30;;;;;;;21.08;100.00;99512.69;5091755;28;20186;-76
2023/07/11 01:30:08;;;;;;;9.63;8.18;;;;;;;21.01;100.00;99509.47;5090514;28;20263;-75
2023/07/11 01:32:36;;;;;;;8.95;7.85;;;;;;;21.00;100.00;99507.84;5109884;28;20194;-75
2023/07/11 01:35:03;;;;;;;8.77;8.00;;;;;;;20.95;100.00;99506.00;5087267;28;20210;-75
2023/07/11 01:37:31;;;;;;;8.18;7.45;;;;;;;20.92;100.00;99508.50;5108300;28;20204;-76
2023/07/11 01:39:57;;;;;;;8.93;8.13;;;;;;;20.85;100.00;99506.16;5109942;28;20215;-76
2023/07/11 01:42:26;;;;;;;8.68;7.93;;;;;;;20.84;100.00;99506.44;5094949;28;20211;-75
2023/07/11 01:44:52;;;;;;;8.80;8.00;;;;;;;20.81;100.00;99504.28;5112715;28;20204;-75
2023/07/11 01:47:21;;;;;;;9.30;8.40;;;;;;;20.77;100.00;99512.19;5112698;28;20185;-76
2023/07/11 01:49:48;;;;;;;10.15;8.05;;;;;;;20.74;100.00;99510.06;5087644;28;20199;-76
2023/07/11 01:52:17;;;;;;;8.25;7.60;;;;;;;20.71;100.00;99512.56;5094476;28;20198;-76
2023/07/11 01:54:44;;;;;;;8.50;7.80;;;;;;;20.62;100.00;99504.22;5112755;28;20294;-76
2023/07/11 01:57:11;;;;;;;8.77;8.02;;;;;;;20.58;100.00;99520.28;5109995;28;20245;-75
2023/07/11 01:59:38;;;;;;;9.07;7.88;;;;;;;20.57;100.00;99515.16;5094559;28;20619;-76
2023/07/11 02:02:06;;;;;;;8.90;8.00;;;;;;;20.56;100.00;99514.34;5108998;28;20541;-76
2023/07/11 02:04:34;;;;;;;8.48;7.65;;;;;;;20.62;100.00;99510.44;5092360;28;20302;-75
2023/07/11 02:07:02;;;;;;;8.65;7.70;;;;;;;20.64;100.00;99510.16;5106898;28;20187;-75
2023/07/11 02:09:29;;;;;;;10.68;8.18;;;;;;;20.68;100.00;99513.94;5108747;28;20526;-75
2023/07/11 02:11:56;;;;;;;9.25;8.45;;;;;;;20.76;100.00;99510.59;5109486;28;20275;-75
2023/07/11 02:14:23;;;;;;;8.15;7.45;;;;;;;20.87;100.00;99511.28;5087937;28;20188;-76
2023/07/11 02:16:51;;;;;;;8.95;8.13;;;;;;;20.87;100.00;99519.44;5110182;28;20191;-77
2023/07/11 02:19:21;;;;;;;9.20;8.30;;;;;;;20.90;100.00;99511.50;5092792;28;20189;-76
2023/07/11 02:21:49;;;;;;;8.68;7.78;;;;;;;21.05;100.00;99519.50;5092456;28;20198;-75
2023/07/11 02:24:16;;;;;;;8.98;8.20;;;;;;;21.02;100.00;99525.53;5110364;28;20226;-75
2023/07/11 02:26:44;;;;;;;9.13;8.23;;;;;;;20.98;100.00;99516.34;5111860;28;20272;-76
2023/07/11 02:29:11;;;;;;;8.27;7.57;;;;;;;20.92;100.00;99516.66;5076921;28;20199;-75
2023/07/11 02:31:38;;;;;;;9.05;8.25;;;;;;;20.91;100.00;99518.59;5106222;28;20189;-75
2023/07/11 02:34:05;;;;;;;8.88;8.05;;;;;;;20.87;100.00;99516.72;5102842;28;20636;-75
2023/07/11 02:36:32;;;;;;;9.15;8.20;;;;;;;20.87;100.00;99520.25;5098411;28;20204;-75
2023/07/11 02:38:59;;;;;;;8.65;7.95;;;;;;;20.88;100.00;99512.91;5106143;28;20219;-75
2023/07/11 02:41:26;;;;;;;11.30;8.35;;;;;;;20.86;100.00;99521.34;5100156;28;20655;-75
2023/07/11 02:43:53;;;;;;;8.50;7.72;;;;;;;20.87;100.00;99516.72;5106093;28;20252;-75
2023/07/11 02:46:20;;;;;;;10.05;8.23;;;;;;;20.82;100.00;99522.22;5098714;28;20769;-75
2023/07/11 02:48:46;;;;;;;8.50;7.78;;;;;;;20.80;100.00;99527.16;5098278;28;20251;-76
2023/07/11 02:51:13;;;;;;;8.82;8.02;;;;;;;20.77;100.00;99527.72;5106122;28;20233;-75
2023/07/11 02:53:40;;;;;;;8.13;7.53;;;;;;;20.72;100.00;99539.47;5110368;28;20224;-75
2023/07/11 02:56:07;;;;;;;9.20;8.27;;;;;;;20.67;100.00;99540.34;5113331;28;20189;-76
2023/07/11 02:58:34;;;;;;;8.43;7.63;;;;;;;20.62;100.00;99534.94;5115964;28;20654;-76
2023/07/11 03:01:02;;;;;;;8.73;7.82;;;;;;;20.60;100.00;99536.34;5115799;28;20216;-75
2023/07/11 03:03:28;;;;;;;8.88;7.85;;;;;;;20.57;100.00;99537.75;5109734;28;20193;-75
2023/07/11 03:05:56;;;;;;;8.48;7.72;;;;;;;20.53;100.00;99528.50;5109059;28;20225;-76
2023/07/11 03:08:22;;;;;;;9.88;8.32;;;;;;;20.52;100.00;99542.44;5110536;28;20198;-75
2023/07/11 03:10:49;;;;;;;9.90;8.38;;;;;;;20.47;100.00;99547.91;5115609;28;20741;-74
2023/07/11 03:13:17;;;;;;;8.77;7.97;;;;;;;20.39;100.00;99549.31;5114420;28;20271;-75
2023/07/11 03:15:44;;;;;;;10.02;9.02;;;;;;;20.34;100.00;99541.22;5114299;28;20277;-74
2023/07/11 03:18:12;;;;;;;9.18;8.30;;;;;;;20.31;100.00;99544.50;5102553;28;20244;-75
2023/07/11 03:20:41;;;;;;;8.73;7.93;;;;;;;20.28;100.00;99542.34;5095864;28;20189;-77
2023/07/11 03:23:09;;;;;;;9.82;8.93;;;;;;;20.31;100.00;99540.97;5091537;28;20266;-75
2023/07/11 03:25:36;;;;;;;9.82;8.93;;;;;;;20.32;100.00;99550.75;5083589;28;20234;-75
2023/07/11 03:28:03;;;;;;;9.82;8.88;;;;;;;20.32;100.00;99537.97;5107244;28;20188;-75
2023/07/11 03:30:31;;;;;;;9.82;8.90;;;;;;;20.38;100.00;99538.75;5103529;28;20291;-76
2023/07/11 03:32:57;;;;;;;10.10;9.23;;;;;;;20.42;100.00;99539.78;5106164;28;20234;-75
2023/07/11 03:35:24;;;;;;;9.65;8.80;;;;;;;20.46;100.00;99535.41;5085052;28;20188;-75
2023/07/11 03:37:51;;;;;;;10.32;8.88;;;;;;;20.54;100.00;99541.03;5107854;28;20671;-75
2023/07/11 03:40:17;;;;;;;9.80;8.18;;;;;;;20.59;100.00;99545.59;5105775;28;20278;-78
2023/07/11 03:42:44;;;;;;;10.35;8.60;;;;;;;20.66;100.00;99540.66;5103429;28;20245;-75
2023/07/11 03:45:11;;;;;;;9.80;8.80;;;;;;;20.75;100.00;99547.09;5102213;28;20217;-75
2023/07/11 03:47:37;;;;;;;9.70;8.45;;;;;;;20.85;100.00;99540.72;5103713;28;20209;-76
2023/07/11 03:50:04;;;;;;;9.07;8.27;;;;;;;20.97;100.00;99550.13;5101183;28;20215;-75
2023/07/11 03:52:31;;;;;;;8.73;8.00;;;;;;;21.12;100.00;99551.03;5102535;28;20192;-75
2023/07/11 03:54:58;;;;;;;9.25;8.45;;;;;;;21.22;100.00;99543.59;5102643;28;20271;-75
2023/07/11 03:57:24;;;;;;;8.90;8.00;;;;;;;21.34;100.00;99538.53;5104936;28;20272;-75
2023/07/11 03:59:51;;;;;;;9.10;7.88;;;;;;;21.43;100.00;99547.66;5100336;28;20267;-75
2023/07/11 04:02:18;;;;;;;9.18;8.38;;;;;;;21.55;100.00;99541.81;5109578;28;20230;-76
2023/07/11 04:04:45;;;;;;;8.18;7.47;;;;;;;21.69;100.00;99550.06;5115044;28;20255;-75
2023/07/11 04:07:11;;;;;;;8.48;7.60;;;;;;;21.81;100.00;99556.69;5105879;28;20230;-76
2023/07/11 04:09:42;;;;;;;8.45;7.65;;;;;;;21.97;100.00;99553.78;5114361;28;20249;-76
2023/07/11 04:12:09;;;;;;;8.50;7.70;;;;;;;22.54;100.00;99558.00;5114706;28;20592;-75
2023/07/11 04:14:36;;;;;;;8.23;7.53;;;;;;;23.31;100.00;99550.81;5105169;28;20270;-76
2023/07/11 04:17:03;;;;;;;8.80;7.97;;;;;;;23.90;100.00;99552.53;5107188;28;20194;-76
2023/07/11 04:19:30;;;;;;;9.10;7.82;;;;;;;24.49;100.00;99567.84;5110537;28;20615;-75
2023/07/11 04:21:56;;;;;;;8.57;7.70;;;;;;;24.72;100.00;99556.84;5113285;28;20280;-76
2023/07/11 04:24:23;;;;;;;9.40;7.80;;;;;;;25.18;100.00;99559.19;5114740;28;20655;-76
2023/07/11 04:26:50;;;;;;;8.50;7.70;;;;;;;25.81;100.00;99561.44;5114260;28;20649;-74
2023/07/11 04:29:16;;;;;;;8.20;7.18;;;;;;;26.25;100.00;99552.91;5108825;28;20230;-76
2023/07/11 04:31:43;;;;;;;8.40;7.70;;;;;;;26.86;100.00;99550.03;5114211;28;20253;-75
2023/07/11 04:34:10;;;;;;;8.23;7.53;;;;;;;27.26;100.00;99550.50;5114808;28;20230;-75
2023/07/11 04:36:36;;;;;;;10.27;7.45;;;;;;;27.49;100.00;99560.91;5113040;28;20196;-78
2023/07/11 04:39:03;;;;;;;8.30;7.50;;;;;;;26.98;100.00;99556.47;5114467;28;20273;-78
2023/07/11 04:41:30;;;;;;;8.45;7.63;;;;;;;26.43;100.00;99561.13;5114315;28;20190;-78
2023/07/11 04:43:56;;;;;;;8.57;7.43;;;;;;;25.78;100.00;99554.66;5114509;28;20211;-77
2023/07/11 04:46:23;;;;;;;7.88;7.20;;;;;;;25.34;100.00;99563.91;5107540;28;20560;-76
2023/07/11 04:48:50;;;;;;;8.10;7.32;;;;;;;25.07;100.00;99566.06;5114576;28;20201;-76
2023/07/11 04:51:17;;;;;;;9.18;8.35;;;;;;;25.03;100.00;99560.41;5111180;28;20191;-76
2023/07/11 04:53:44;;;;;;;8.20;7.50;;;;;;;24.98;100.00;99561.34;5114174;28;20276;-77
2023/07/11 04:56:11;;;;;;;9.57;7.18;;;;;;;24.95;100.00;99563.94;5113978;28;20226;-76
2023/07/11 04:58:37;;;;;;;8.38;7.57;;;;;;;25.05;100.00;99571.06;5095304;28;20188;-76
2023/07/11 05:01:13;;;;;;;8.40;7.40;;;;;;;25.09;100.00;99563.81;5110185;28;20742;-76
2023/07/11 05:03:40;;;;;;;7.80;7.18;;;;;;;25.18;100.00;99567.41;5113489;28;20692;-78
2023/07/11 05:06:07;;;;;;;8.18;7.40;;;;;;;25.24;100.00;99569.66;5111452;28;20282;-78
2023/07/11 05:08:34;;;;;;;8.25;7.57;;;;;;;25.32;100.00;99560.69;5102022;28;20214;-77
2023/07/11 05:11:07;;;;;;;9.13;7.50;;;;;;;25.31;100.00;99567.28;5107182;28;20561;-77
2023/07/11 05:13:34;;;;;;;8.80;7.57;;;;;;;25.46;100.00;99567.97;5089723;28;20198;-78
2023/07/11 05:16:03;;;;;;;8.40;7.60;;;;;;;25.32;100.00;99565.34;5099514;28;20203;-79
2023/07/11 05:18:31;;;;;;;8.35;7.60;;;;;;;25.58;100.00;99560.75;5087308;28;20203;-77
2023/07/11 05:20:58;;;;;;;8.52;7.63;;;;;;;25.60;100.00;99568.69;5089464;28;20256;-77
2023/07/11 05:23:27;;;;;;;7.95;7.25;;;;;;;25.68;100.00;99565.13;5097212;28;20216;-76
2023/07/11 05:25:54;;;;;;;8.55;7.53;;;;;;;25.69;100.00;99564.81;5088183;28;20231;-77
2023/07/11 05:28:22;;;;;;;9.80;7.60;;;;;;;25.90;100.00;99575.97;5095132;28;20200;-76
2023/07/11 05:30:48;;;;;;;9.43;7.20;;;;;;;26.03;100.00;99564.03;5113154;28;20240;-77
2023/07/11 05:33:15;;;;;;;7.50;6.72;;;;;;;26.31;100.00;99572.78;5112779;28;20362;-76
2023/07/11 05:38:55;;;;;;;7.60;6.72;;;;;;;26.54;100.00;99562.41;5092551;28;20199;-76
2023/07/11 05:41:22;;;;;;;7.43;6.72;;;;;;;26.57;100.00;99559.78;5107356;28;20192;-77
2023/07/11 05:43:49;;;;;;;7.78;6.40;;;;;;;26.57;100.00;99556.25;5113231;28;20270;-77
2023/07/11 05:46:15;;;;;;;8.45;6.55;;;;;;;26.56;100.00;99560.13;5112640;28;20261;-78
2023/07/11 05:48:42;;;;;;;9.63;6.57;;;;;;;26.07;100.00;99555.97;5112977;28;20188;-77
2023/07/11 05:51:14;;;;;;;8.43;6.93;;;;;;;26.42;100.00;99559.50;5111220;28;20203;-77
2023/07/11 05:53:41;;;;;;;7.80;7.00;;;;;;;26.15;100.00;99566.13;5112876;28;20199;-77
2023/07/11 05:56:08;;;;;;;7.25;6.20;;;;;;;26.23;100.00;99566.16;5099768;28;20215;-76
2023/07/11 05:58:35;;;;;;;7.18;6.45;;;;;;;26.53;100.00;99564.34;5100725;28;20188;-77
2023/07/11 06:01:04;;;;;;;6.40;5.90;;;;;;;26.51;100.00;99566.59;5099427;28;20207;-77
2023/07/11 06:03:31;;;;;;;9.00;6.68;;;;;;;26.55;100.00;99564.00;5112354;28;20242;-76
2023/07/11 06:06:00;;;;;;;6.68;6.07;;;;;;;26.58;100.00;99568.84;5111770;28;20708;-76
2023/07/11 06:08:29;;;;;;;7.90;6.38;;;;;;;26.74;100.00;99567.16;5090712;28;20219;-76
2023/07/11 06:10:57;;;;;;;6.93;6.25;;;;;;;26.93;100.00;99561.31;5094354;28;20196;-77
2023/07/11 06:13:25;;;;;;;6.40;5.75;;;;;;;26.98;100.00;99567.44;5111081;28;20175;-77
2023/07/11 06:16:03;;;;;;;7.70;6.80;;;;;;;27.12;100.00;99559.78;5112756;28;20734;-78
2023/07/11 06:18:33;;;;;;;7.93;6.40;;;;;;;27.08;100.00;99566.28;5094241;28;20224;-79
2023/07/11 06:21:00;;;;;;;7.15;6.47;;;;;;;27.38;100.00;99567.13;5109382;28;20211;-78
2023/07/11 06:23:27;;;;;;;7.57;6.47;;;;;;;27.42;100.00;99566.13;5112301;28;20205;-78
2023/07/11 06:25:53;;;;;;;6.60;6.00;;;;;;;27.27;100.00;99566.69;5099606;28;20184;-78
2023/07/11 06:28:20;;;;;;;6.45;5.90;;;;;;;27.37;100.00;99571.81;5110385;28;20195;-78
2023/07/11 06:30:47;;;;;;;6.43;5.82;;;;;;;27.49;100.00;99562.84;5109715;28;20245;-78
2023/07/11 06:33:18;;;;;;;6.60;6.00;;;;;;;27.36;100.00;99561.13;5107154;28;20184;-77
2023/07/11 06:35:50;;;;;;;6.85;6.15;;;;;;;27.35;100.00;99560.31;5106617;28;20237;-76
2023/07/11 06:38:18;;;;;;;6.63;6.00;;;;;;;27.63;100.00;99570.84;5107849;28;20199;-77
2023/07/11 06:40:52;;;;;;;8.25;6.03;;;;;;;27.96;100.00;99572.56;5112248;28;20211;-77
2023/07/11 06:43:20;;;;;;;9.88;6.28;;;;;;;27.93;100.00;99567.75;5103466;28;20198;-79
2023/07/11 06:45:55;;;;;;;10.50;6.43;;;;;;;28.28;100.00;99571.03;5112144;28;20192;-79
2023/07/11 06:48:24;;;;;;;7.38;5.93;;;;;;;28.26;100.00;99567.81;5109678;28;20202;-78
2023/07/11 06:50:56;;;;;;;6.30;5.78;;;;;;;27.54;100.00;99568.16;5084528;28;20197;-78
2023/07/11 06:53:26;;;;;;;7.15;6.25;;;;;;;27.02;100.00;99564.84;5080840;28;20248;-78
2023/07/11 06:55:52;;;;;;;6.43;5.82;;;;;;;26.89;100.00;99572.19;5105820;28;20242;-78
2023/07/11 06:58:20;;;;;;;8.98;6.20;;;;;;;27.03;100.00;99571.97;5111158;28;20204;-77
2023/07/11 07:01:00;;;;;;;7.03;6.43;;;;;;;27.36;100.00;99566.63;5111829;28;20499;-79
2023/07/11 07:03:27;;;;;;;6.43;5.93;;;;;;;27.66;100.00;99561.97;5103172;28;20321;-79
2023/07/11 07:05:56;;;;;;;6.15;5.55;;;;;;;27.96;100.00;99561.56;5110931;28;20192;-79
2023/07/11 07:08:24;;;;;;;8.18;6.57;;;;;;;27.86;100.00;99567.47;5110530;28;20200;-78
2023/07/11 07:10:51;;;;;;;7.95;6.28;;;;;;;28.09;100.00;99567.16;5109332;28;20191;-78
2023/07/11 07:13:19;;;;;;;7.07;6.13;;;;;;;28.29;100.00;99569.88;5107732;28;20184;-78
2023/07/11 07:15:50;;;;;;;7.45;6.70;;;;;;;27.63;100.00;99568.91;5110772;28;20269;-78
2023/07/11 07:18:17;;;;;;;7.30;6.63;;;;;;;28.00;100.00;99567.19;5092042;28;20188;-78
2023/07/11 07:20:45;;;;;;;8.05;6.43;;;;;;;28.28;100.00;99564.69;5097265;28;20228;-78
2023/07/11 07:23:35;;;;;;;7.05;6.40;;;;;;;28.49;100.00;99561.91;5110988;28;20196;-78
2023/07/11 07:26:03;;;;;;;7.32;6.78;;;;;;;28.79;100.00;99563.41;5109845;28;20650;-79
2023/07/11 07:28:31;;;;;;;7.95;6.38;;;;;;;28.84;100.00;99557.66;5105311;28;20200;-79
2023/07/11 07:30:59;;;;;;;7.38;6.28;;;;;;;28.95;100.00;99560.78;5109314;28;20342;-78
2023/07/11 07:33:27;;;;;;;7.18;6.43;;;;;;;28.83;100.00;99559.63;5109692;28;20211;-79
2023/07/11 07:35:55;;;;;;;9.68;6.07;;;;;;;29.05;100.00;99560.34;5111382;28;20187;-79
2023/07/11 07:38:22;;;;;;;6.88;6.20;;;;;;;29.34;100.00;99562.09;5086094;28;20183;-79
2023/07/11 07:40:52;;;;;;;7.35;6.65;;;;;;;28.96;100.00;99556.88;5111169;28;20734;-80
2023/07/11 07:43:19;;;;;;;7.00;6.32;;;;;;;28.24;100.00;99569.28;5105445;28;20245;-77
2023/07/11 07:45:52;;;;;;;8.20;5.90;;;;;;;28.81;100.00;99558.34;5112526;28;20619;-78
2023/07/11 07:48:20;;;;;;;6.85;6.25;;;;;;;29.27;98.52;99552.41;5108060;28;20799;-79
2023/07/11 07:50:47;;;;;;;6.82;6.20;;;;;;;29.54;97.78;99550.09;5114610;28;20188;-77
2023/07/11 07:53:15;;;;;;;6.70;6.10;;;;;;;29.72;97.16;99546.75;5109277;28;20192;-78
2023/07/11 07:55:42;;;;;;;6.97;6.28;;;;;;;29.93;98.04;99548.56;5114263;28;20654;-77
2023/07/11 07:58:10;;;;;;;6.93;5.97;;;;;;;29.70;97.61;99549.06;5091074;28;20565;-79
2023/07/11 08:00:37;;;;;;;7.32;6.35;;;;;;;29.58;98.54;99562.09;5075910;28;20191;-78
2023/07/11 08:03:04;;;;;;;5.93;5.43;;;;;;;28.97;94.98;99558.50;5098730;28;20218;-78
2023/07/11 08:05:31;;;;;;;6.78;5.55;;;;;;;28.98;95.47;99563.66;5105812;28;20267;-78
2023/07/11 08:07:59;;;;;;;6.47;5.88;;;;;;;28.81;94.19;99553.66;5106050;28;20583;-79
2023/07/11 08:10:26;;;;;;;6.15;5.43;;;;;;;29.12;92.77;99544.81;5112832;28;20215;-78
2023/07/11 08:12:52;;;;;;;5.90;5.45;;;;;;;29.67;90.79;99548.97;5113891;28;20223;-78
2023/07/11 08:15:19;;;;;;;6.07;5.47;;;;;;;30.16;89.19;99553.22;5103743;28;20212;-78
2023/07/11 08:17:46;;;;;;;6.32;5.20;;;;;;;30.27;88.06;99549.94;5110209;28;20632;-77
2023/07/11 08:20:13;;;;;;;5.93;5.40;;;;;;;30.58;85.59;99555.56;5108184;28;20188;-79
2023/07/11 08:22:40;;;;;;;6.38;4.93;;;;;;;30.74;85.37;99550.06;5114177;28;20217;-79
2023/07/11 08:25:07;;;;;;;5.85;5.32;;;;;;;29.76;84.80;99544.09;5114662;28;20266;-79
2023/07/11 08:27:34;;;;;;;6.13;5.03;;;;;;;29.89;82.74;99547.66;5114079;28;20211;-79
2023/07/11 08:30:02;;;;;;;5.78;5.22;;;;;;;29.68;80.69;99548.59;5100183;28;20254;-79
2023/07/11 08:32:29;;;;;;;7.28;5.80;;;;;;;29.44;82.26;99548.66;5099532;28;20192;-78
2023/07/11 08:34:56;;;;;;;7.47;5.30;;;;;;;29.96;83.31;99551.44;5107082;28;20188;-79
2023/07/11 08:37:22;;;;;;;5.40;4.88;;;;;;;30.54;83.76;99554.66;5113539;28;20287;-79
2023/07/11 08:39:49;;;;;;;6.78;5.35;;;;;;;29.76;75.94;99549.63;5114374;28;20215;-78
2023/07/11 08:42:27;;;;;;;11.38;5.53;;;;;;;29.63;77.89;99546.06;5096041;28;20609;-79
2023/07/11 08:45:14;;;;;;;6.13;5.07;;;;;;;30.18;75.06;99553.66;5095231;28;20219;-79
2023/07/11 08:47:45;;;;;;;5.70;4.90;;;;;;;29.97;75.99;99552.22;5100151;28;20215;-79
2023/07/11 08:50:15;;;;;;;5.97;5.43;;;;;;;30.45;75.33;99545.72;5105992;28;20214;-79
2023/07/11 08:52:41;;;;;;;6.32;4.88;;;;;;;30.73;74.53;99546.50;5105905;28;20219;-79
2023/07/11 08:55:18;;;;;;;4.88;4.47;;;;;;;30.50;75.07;99539.97;5095558;28;20666;-79
2023/07/11 08:58:14;;;;;;;5.97;4.90;;;;;;;29.84;71.40;99537.63;5110858;28;20195;-79
2023/07/11 09:00:43;;;;;;;6.57;5.15;;;;;;;30.22;74.05;99542.72;5100865;28;20561;-79
2023/07/11 09:03:30;;;;;;;5.15;4.65;;;;;;;30.11;68.17;99539.66;5089364;28;20187;-79
2023/07/11 09:06:03;;;;;;;4.90;4.40;;;;;;;30.39;69.09;99530.53;5094663;28;20276;-79
2023/07/11 09:08:31;;;;;;;6.18;4.78;;;;;;;29.84;71.00;99534.06;5113115;28;20219;-79
2023/07/11 09:11:20;;;;;;;5.43;4.93;;;;;;;29.95;69.96;99533.28;5110338;28;20600;-79
2023/07/11 09:14:17;;;;;;;5.38;4.97;;;;;;;30.38;68.78;99526.97;5108635;28;20216;-81
2023/07/11 09:16:51;;;;;;;5.72;4.88;;;;;;;30.97;68.53;99528.94;5100238;28;20235;-78
2023/07/11 09:19:31;;;;;;;6.72;5.28;;;;;;;30.42;72.44;99533.38;5089044;28;20191;-79
2023/07/11 09:22:15;;;;;;;6.18;5.60;;;;;;;31.15;73.23;99534.94;5093706;28;20192;-80
2023/07/11 09:24:53;;;;;;;6.07;5.53;;;;;;;30.60;73.06;99523.66;5113335;28;20191;-79
2023/07/11 09:27:32;;;;;;;6.97;5.50;;;;;;;30.85;69.83;99526.25;5089412;28;20288;-79
2023/07/11 09:30:01;;;;;;;5.40;4.90;;;;;;;31.25;67.01;99526.09;5113206;28;20207;-78
2023/07/11 09:32:34;;;;;;;6.15;5.55;;;;;;;31.54;67.64;99533.09;5112511;28;20215;-78
2023/07/11 09:35:25;;;;;;;6.05;5.43;;;;;;;31.65;68.37;99520.28;5111098;28;20198;-78
2023/07/11 09:37:56;;;;;;;6.47;5.60;;;;;;;31.93;68.07;99518.13;5082174;28;20188;-80
2023/07/11 09:40:26;;;;;;;7.80;5.70;;;;;;;31.64;69.08;99524.22;5094725;28;20205;-79
2023/07/11 09:42:55;;;;;;;7.68;5.57;;;;;;;31.56;66.90;99522.47;5112792;28;20237;-79
2023/07/11 09:45:32;;;;;;;8.10;6.18;;;;;;;30.58;71.47;99525.16;5107954;28;20232;-79
2023/07/11 09:48:15;;;;;;;6.68;5.72;;;;;;;30.64;71.00;99520.97;5106971;28;20222;-79
2023/07/11 09:50:54;;;;;;;7.80;6.30;;;;;;;31.20;71.23;99518.06;5111736;28;20192;-79
2023/07/11 09:53:43;;;;;;;7.07;5.55;;;;;;;31.79;66.95;99509.50;5102685;28;20196;-79
2023/07/11 09:56:12;;;;;;;5.97;5.47;;;;;;;31.97;67.20;99509.88;5112226;28;20274;-80
2023/07/11 09:58:40;;;;;;;6.45;5.82;;;;;;;32.10;65.09;99508.63;5112285;28;20192;-79
2023/07/11 10:01:15;;;;;;;5.85;5.22;;;;;;;32.27;64.31;99503.41;5107206;28;20192;-79
2023/07/11 10:03:45;;;;;;;6.47;5.85;;;;;;;32.54;62.73;99500.72;5097962;28;20192;-79
2023/07/11 10:06:39;;;;;;;6.85;5.13;;;;;;;32.47;62.85;99498.63;5083236;28;20203;-79
2023/07/11 10:09:23;;;;;;;6.57;5.90;;;;;;;32.64;61.54;99503.72;5100016;28;20180;-79
2023/07/11 10:11:59;;;;;;;6.00;5.50;;;;;;;32.59;60.77;99492.09;5094233;28;20211;-80
2023/07/11 10:14:39;;;;;;;6.15;5.57;;;;;;;32.63;62.42;99501.31;5097684;28;20722;-79
2023/07/11 10:17:26;;;;;;;6.95;6.15;;;;;;;31.50;63.67;99493.44;5098235;28;20242;-79
2023/07/11 10:19:58;;;;;;;6.30;5.80;;;;;;;31.88;64.52;99501.78;5091562;28;20265;-79
2023/07/11 10:22:43;;;;;;;6.18;5.57;;;;;;;32.27;63.31;99495.09;5099229;28;20658;-79
2023/07/11 10:25:17;;;;;;;6.93;6.20;;;;;;;32.64;62.90;99489.84;5094294;28;20723;-80
2023/07/11 10:27:50;;;;;;;6.30;5.70;;;;;;;32.84;62.28;99492.56;5112174;28;20220;-79
2023/07/11 10:30:25;;;;;;;6.70;5.55;;;;;;;33.14;60.94;99491.44;5094924;28;20191;-79
2023/07/11 10:33:05;;;;;;;5.90;5.30;;;;;;;33.36;60.47;99484.28;5112437;28;20666;-80
2023/07/11 10:36:27;;;;;;;6.25;5.65;;;;;;;32.87;61.81;99481.50;5091808;28;20200;-79
2023/07/11 10:39:20;;;;;;;7.82;5.63;;;;;;;32.70;62.02;99484.81;5095081;28;20203;-79
2023/07/11 10:41:54;;;;;;;6.13;5.60;;;;;;;32.80;62.97;99477.84;5073475;28;20746;-78
2023/07/11 10:44:28;;;;;;;6.95;6.20;;;;;;;32.88;60.77;99474.78;5093755;28;20249;-79
2023/07/11 10:46:56;;;;;;;7.00;5.80;;;;;;;32.95;60.28;99469.34;5090671;28;20633;-79
2023/07/11 10:49:26;;;;;;;7.22;5.57;;;;;;;33.11;61.56;99469.19;5085869;28;20617;-80
2023/07/11 10:52:12;;;;;;;6.55;5.78;;;;;;;33.01;61.95;99467.88;5068382;28;20211;-79
2023/07/11 10:54:48;;;;;;;6.55;5.75;;;;;;;33.09;60.45;99471.53;5093434;28;20210;-78
2023/07/11 10:57:25;;;;;;;6.70;6.00;;;;;;;32.82;61.57;99465.19;5107909;28;20195;-78
2023/07/11 11:00:39;;;;;;;6.47;5.88;;;;;;;33.04;61.81;99458.78;5094664;28;20252;-80
2023/07/11 11:03:37;;;;;;;6.82;6.20;;;;;;;31.88;62.40;99452.72;5053175;28;20195;-79
2023/07/11 11:06:29;;;;;;;7.28;6.18;;;;;;;31.54;62.82;99450.03;5109314;28;20623;-77
2023/07/11 11:09:04;;;;;;;6.45;5.85;;;;;;;32.10;63.26;99453.19;5089976;28;20290;-79
2023/07/11 11:11:35;;;;;;;6.25;5.63;;;;;;;32.50;62.15;99452.72;5109612;28;20203;-80
2023/07/11 11:14:10;;;;;;;6.68;6.00;;;;;;;32.90;62.98;99446.66;5109670;28;20620;-79
2023/07/11 11:16:43;;;;;;;7.95;6.30;;;;;;;32.58;62.59;99441.38;5092560;28;20222;-80
2023/07/11 11:19:29;;;;;;;6.85;6.20;;;;;;;32.43;62.62;99435.97;5107588;28;20189;-79
2023/07/11 11:22:06;;;;;;;6.55;5.95;;;;;;;32.33;61.48;99438.19;5088321;28;20561;-79
2023/07/11 11:24:32;;;;;;;6.85;6.15;;;;;;;32.72;60.64;99429.75;5097162;28;20297;-79
2023/07/11 11:26:59;;;;;;;6.82;6.20;;;;;;;33.17;59.63;99428.88;5110030;28;20211;-80
2023/07/11 11:29:51;;;;;;;6.38;5.63;;;;;;;32.98;62.73;99428.97;5115061;28;20195;-79
2023/07/11 11:32:41;;;;;;;7.25;5.70;;;;;;;32.92;62.01;99420.16;5109840;28;20216;-79
2023/07/11 11:35:15;;;;;;;7.03;6.38;;;;;;;33.35;60.27;99421.59;5113507;28;20667;-80
2023/07/11 11:38:08;;;;;;;6.40;5.80;;;;;;;33.55;58.92;99411.91;5096437;28;20206;-79
2023/07/11 11:40:40;;;;;;;6.43;5.70;;;;;;;33.84;58.81;99409.50;5115367;28;20208;-80
2023/07/11 11:43:14;;;;;;;7.15;6.13;;;;;;;34.01;58.72;99409.72;5097208;28;20274;-79
2023/07/11 11:45:47;;;;;;;6.75;6.13;;;;;;;34.29;58.14;99414.00;5092824;28;20621;-79